Time;durP1;ratioP1;P1;durP2;ratioP2;P2;SDS_P1;SDS_P2;PMS_P1;PMS_P2;Temp;Humidity;BMP_temperature;BMP_pressure;BME280_temperature;BME280_humidity;BME280_pressure;Samples;Min_cycle;Max_cycle;Signal;HPM_P1;HPM_P2
2021/11/06 00:01:40;;;;;;;11.40;7.30;;;;;;;;;;5095383;28;20465;-81
2021/11/06 00:04:07;;;;;;;15.60;8.20;;;;;;;;;;5098001;28;20832;-82
2021/11/06 00:06:34;;;;;;;15.30;8.80;;;;;;;;;;5098079;28;20449;-83
2021/11/06 00:09:01;;;;;;;13.50;8.50;;;;;;;;;;5097020;28;20469;-83
2021/11/06 00:11:30;;;;;;;13.93;8.67;;;;;;;;;;5097206;28;20520;-82
2021/11/06 00:13:57;;;;;;;13.57;8.13;;;;;;;;;;5097418;28;20473;-82
2021/11/06 00:16:24;;;;;;;21.70;12.33;;;;;;;;;;5099036;28;20460;-82
2021/11/06 00:18:51;;;;;;;18.90;9.50;;;;;;;;;;5097340;28;20453;-82
2021/11/06 00:21:18;;;;;;;18.13;9.40;;;;;;;;;;5096879;28;20471;-83
2021/11/06 00:23:45;;;;;;;15.07;8.50;;;;;;;;;;5097004;28;20472;-82
2021/11/06 00:26:13;;;;;;;17.23;9.40;;;;;;;;;;5097779;28;20956;-83
2021/11/06 00:28:41;;;;;;;13.73;9.30;;;;;;;;;;5097359;28;20485;-82
2021/11/06 00:31:08;;;;;;;17.90;10.10;;;;;;;;;;5097464;28;20967;-82
2021/11/06 00:33:35;;;;;;;19.27;9.80;;;;;;;;;;5098303;28;20491;-83
2021/11/06 00:36:03;;;;;;;14.97;9.47;;;;;;;;;;5095271;28;20483;-83
2021/11/06 00:38:30;;;;;;;12.90;8.10;;;;;;;;;;5097300;28;20452;-83
2021/11/06 00:40:57;;;;;;;18.73;10.00;;;;;;;;;;5096802;28;20459;-82
2021/11/06 00:43:24;;;;;;;15.93;9.53;;;;;;;;;;5096772;28;20482;-83
2021/11/06 00:45:52;;;;;;;14.27;8.50;;;;;;;;;;5098057;28;20459;-83
2021/11/06 00:48:20;;;;;;;13.90;8.77;;;;;;;;;;5096511;28;20454;-83
2021/11/06 00:50:47;;;;;;;15.10;8.83;;;;;;;;;;5096803;28;20460;-83
2021/11/06 00:53:14;;;;;;;17.30;8.70;;;;;;;;;;5097032;28;20479;-83
2021/11/06 00:55:41;;;;;;;17.00;8.37;;;;;;;;;;5100459;28;20460;-83
2021/11/06 00:58:08;;;;;;;14.70;8.53;;;;;;;;;;5097912;28;20456;-83
2021/11/06 01:00:35;;;;;;;18.87;10.33;;;;;;;;;;5097211;28;20454;-83
2021/11/06 01:03:03;;;;;;;15.33;9.67;;;;;;;;;;5096705;28;20469;-83
2021/11/06 01:05:30;;;;;;;19.67;11.43;;;;;;;;;;5096860;28;20450;-82
2021/11/06 01:07:58;;;;;;;18.33;10.33;;;;;;;;;;5097333;28;20457;-83
2021/11/06 01:10:25;;;;;;;17.27;9.20;;;;;;;;;;5096027;28;20485;-82
2021/11/06 01:12:52;;;;;;;18.07;10.50;;;;;;;;;;5097942;28;20472;-83
2021/11/06 01:15:19;;;;;;;13.60;8.70;;;;;;;;;;5098576;28;20457;-82
2021/11/06 01:17:47;;;;;;;17.27;9.33;;;;;;;;;;5096163;28;20449;-82
2021/11/06 01:20:16;;;;;;;15.13;9.90;;;;;;;;;;5095840;28;20479;-83
2021/11/06 01:22:43;;;;;;;18.67;12.27;;;;;;;;;;5095942;28;21058;-83
2021/11/06 01:25:11;;;;;;;17.67;11.80;;;;;;;;;;5095478;28;20456;-82
2021/11/06 01:27:38;;;;;;;24.17;13.13;;;;;;;;;;5096717;28;20456;-83
2021/11/06 01:30:06;;;;;;;21.33;11.87;;;;;;;;;;5095818;28;20484;-82
2021/11/06 01:32:33;;;;;;;18.47;11.50;;;;;;;;;;5096499;28;20585;-82
2021/11/06 01:35:01;;;;;;;19.77;13.40;;;;;;;;;;5094070;28;20471;-83
2021/11/06 01:37:29;;;;;;;18.00;11.00;;;;;;;;;;5095887;28;20938;-83
2021/11/06 01:39:56;;;;;;;19.00;10.70;;;;;;;;;;5095501;28;20454;-83
2021/11/06 01:42:25;;;;;;;18.20;10.93;;;;;;;;;;5094547;28;21151;-82
2021/11/06 01:44:52;;;;;;;23.43;13.37;;;;;;;;;;5095215;28;20502;-82
2021/11/06 01:47:19;;;;;;;23.27;12.60;;;;;;;;;;5095422;28;20821;-82
2021/11/06 01:49:46;;;;;;;19.00;12.30;;;;;;;;;;5094831;28;20488;-82
2021/11/06 01:52:13;;;;;;;20.47;12.47;;;;;;;;;;5095355;28;20441;-82
2021/11/06 01:54:42;;;;;;;31.83;12.17;;;;;;;;;;5096858;28;20459;-83
2021/11/06 01:57:09;;;;;;;24.90;15.30;;;;;;;;;;5095787;28;20970;-82
2021/11/06 01:59:36;;;;;;;26.43;14.93;;;;;;;;;;5100342;28;20446;-84
2021/11/06 02:02:03;;;;;;;24.83;13.70;;;;;;;;;;5101850;28;20505;-84
2021/11/06 02:04:30;;;;;;;26.00;12.60;;;;;;;;;;5114029;28;20493;-83
2021/11/06 02:06:58;;;;;;;18.47;11.80;;;;;;;;;;5113900;28;20463;-83
2021/11/06 02:09:25;;;;;;;22.53;13.60;;;;;;;;;;5110017;28;20484;-82
2021/11/06 02:11:54;;;;;;;22.70;12.37;;;;;;;;;;5112172;28;20517;-82
2021/11/06 02:14:22;;;;;;;28.63;16.70;;;;;;;;;;5114174;28;20663;-82
2021/11/06 02:16:51;;;;;;;22.97;14.53;;;;;;;;;;5111347;28;20453;-83
2021/11/06 02:19:18;;;;;;;25.27;14.73;;;;;;;;;;5089342;28;20877;-83
2021/11/06 02:21:47;;;;;;;25.10;14.90;;;;;;;;;;5074433;28;20455;-83
2021/11/06 02:24:14;;;;;;;21.20;13.77;;;;;;;;;;5076997;28;20839;-83
2021/11/06 02:26:41;;;;;;;21.00;12.83;;;;;;;;;;5078343;28;20453;-85
2021/11/06 02:29:08;;;;;;;24.97;14.67;;;;;;;;;;5090675;28;20482;-84
2021/11/06 02:31:35;;;;;;;23.23;14.47;;;;;;;;;;5078177;28;20877;-84
2021/11/06 02:34:02;;;;;;;20.13;13.13;;;;;;;;;;5082492;28;20472;-83
2021/11/06 02:36:30;;;;;;;30.20;15.00;;;;;;;;;;5098912;28;20452;-84
2021/11/06 02:38:59;;;;;;;23.47;13.20;;;;;;;;;;5098767;28;20455;-84
2021/11/06 02:41:27;;;;;;;22.70;14.10;;;;;;;;;;5097882;28;20456;-84
2021/11/06 02:43:54;;;;;;;20.47;12.20;;;;;;;;;;5098180;28;20482;-83
2021/11/06 02:46:21;;;;;;;24.93;12.47;;;;;;;;;;5100323;28;20450;-85
2021/11/06 02:48:48;;;;;;;22.50;12.07;;;;;;;;;;5093494;28;20478;-83
2021/11/06 02:51:15;;;;;;;30.30;14.63;;;;;;;;;;5085388;28;20485;-82
2021/11/06 02:53:42;;;;;;;26.10;13.47;;;;;;;;;;5078132;28;20474;-82
2021/11/06 02:56:11;;;;;;;22.07;11.13;;;;;;;;;;5078615;28;20983;-82
2021/11/06 02:58:38;;;;;;;23.20;12.00;;;;;;;;;;5078100;28;20460;-82
2021/11/06 03:01:05;;;;;;;22.00;11.50;;;;;;;;;;5078142;28;20450;-82
2021/11/06 03:03:33;;;;;;;20.93;10.33;;;;;;;;;;5080860;28;20470;-81
2021/11/06 03:06:00;;;;;;;31.73;11.93;;;;;;;;;;5099663;28;20953;-81
2021/11/06 03:08:27;;;;;;;27.37;12.73;;;;;;;;;;5079196;28;20450;-81
2021/11/06 03:10:54;;;;;;;37.73;14.27;;;;;;;;;;5085841;28;20488;-81
2021/11/06 03:13:24;;;;;;;22.97;12.37;;;;;;;;;;5100690;28;20487;-82
2021/11/06 03:15:51;;;;;;;27.43;12.73;;;;;;;;;;5098801;28;20464;-82
2021/11/06 03:18:18;;;;;;;27.80;12.40;;;;;;;;;;5098613;28;20459;-82
2021/11/06 03:20:45;;;;;;;17.90;10.13;;;;;;;;;;5097473;28;20448;-82
2021/11/06 03:23:12;;;;;;;24.17;10.50;;;;;;;;;;5098554;28;20490;-82
2021/11/06 03:25:40;;;;;;;19.40;10.97;;;;;;;;;;5098990;28;20453;-82
2021/11/06 03:28:07;;;;;;;26.37;12.20;;;;;;;;;;5098067;28;20459;-82
2021/11/06 03:30:35;;;;;;;20.00;8.87;;;;;;;;;;5098092;28;21190;-82
2021/11/06 03:33:02;;;;;;;19.03;10.10;;;;;;;;;;5097057;28;20466;-81
2021/11/06 03:35:30;;;;;;;20.07;10.50;;;;;;;;;;5084204;28;20454;-83
2021/11/06 03:37:57;;;;;;;20.07;11.10;;;;;;;;;;5097918;28;20517;-84
2021/11/06 03:40:24;;;;;;;22.00;9.60;;;;;;;;;;5099635;28;20451;-82
2021/11/06 03:42:51;;;;;;;15.13;9.83;;;;;;;;;;5094697;28;20482;-81
2021/11/06 03:45:18;;;;;;;22.37;9.23;;;;;;;;;;5077778;28;20450;-82
2021/11/06 03:47:47;;;;;;;18.37;9.80;;;;;;;;;;5076864;28;20449;-80
2021/11/06 03:50:14;;;;;;;24.57;10.70;;;;;;;;;;5075794;28;20493;-81
2021/11/06 03:52:41;;;;;;;20.83;9.33;;;;;;;;;;5086833;28;20485;-81
2021/11/06 03:55:10;;;;;;;21.93;9.63;;;;;;;;;;5097534;28;20453;-81
2021/11/06 03:57:37;;;;;;;22.60;9.77;;;;;;;;;;5097380;28;20612;-81
2021/11/06 04:00:05;;;;;;;27.17;9.63;;;;;;;;;;5097182;28;20449;-81
2021/11/06 04:02:33;;;;;;;16.93;8.87;;;;;;;;;;5097108;28;21022;-81
2021/11/06 04:05:01;;;;;;;19.07;8.87;;;;;;;;;;5095730;28;20506;-81
2021/11/06 04:07:28;;;;;;;22.67;9.50;;;;;;;;;;5097993;28;20479;-82
2021/11/06 04:09:55;;;;;;;18.70;9.10;;;;;;;;;;5097828;28;20484;-80
2021/11/06 04:12:23;;;;;;;18.63;9.60;;;;;;;;;;5097121;28;20452;-83
2021/11/06 04:14:50;;;;;;;19.90;10.23;;;;;;;;;;5098656;28;20478;-82
2021/11/06 04:17:17;;;;;;;18.83;9.60;;;;;;;;;;5098507;28;20453;-81
2021/11/06 04:19:44;;;;;;;24.20;9.87;;;;;;;;;;5098800;28;20452;-81
2021/11/06 04:22:12;;;;;;;26.83;11.00;;;;;;;;;;5096865;28;20463;-82
2021/11/06 04:24:40;;;;;;;21.90;10.97;;;;;;;;;;5098462;28;20446;-82
2021/11/06 04:27:07;;;;;;;23.53;9.70;;;;;;;;;;5090335;28;20476;-81
2021/11/06 04:29:35;;;;;;;19.70;10.47;;;;;;;;;;5090457;28;20461;-82
2021/11/06 04:32:03;;;;;;;22.30;12.03;;;;;;;;;;5095797;28;20490;-83
2021/11/06 04:34:30;;;;;;;16.87;9.33;;;;;;;;;;5097721;28;20496;-82
2021/11/06 04:36:57;;;;;;;25.33;12.10;;;;;;;;;;5096954;28;20457;-81
2021/11/06 04:39:25;;;;;;;17.07;10.40;;;;;;;;;;5091029;28;20451;-81
2021/11/06 04:41:53;;;;;;;22.30;10.00;;;;;;;;;;5098712;28;20468;-81
2021/11/06 04:44:20;;;;;;;22.50;10.37;;;;;;;;;;5098687;28;20558;-82
2021/11/06 04:46:47;;;;;;;21.37;10.30;;;;;;;;;;5099037;28;20452;-81
2021/11/06 04:49:14;;;;;;;22.00;10.00;;;;;;;;;;5098054;28;20453;-83
2021/11/06 04:51:41;;;;;;;22.47;11.83;;;;;;;;;;5098460;28;21020;-82
2021/11/06 04:54:08;;;;;;;15.30;9.33;;;;;;;;;;5094925;28;20469;-82
2021/11/06 04:56:37;;;;;;;17.33;8.97;;;;;;;;;;5097273;28;20459;-82
2021/11/06 04:59:04;;;;;;;20.00;8.63;;;;;;;;;;5092058;28;20457;-83
2021/11/06 05:01:31;;;;;;;16.10;9.13;;;;;;;;;;5098699;28;20447;-82
2021/11/06 05:03:58;;;;;;;17.23;9.03;;;;;;;;;;5099895;28;20477;-83
2021/11/06 05:06:27;;;;;;;17.23;7.83;;;;;;;;;;5099516;28;20464;-82
2021/11/06 05:08:54;;;;;;;28.53;13.10;;;;;;;;;;5099643;28;20449;-81
2021/11/06 05:11:21;;;;;;;18.13;9.87;;;;;;;;;;5099454;28;20494;-81
2021/11/06 05:13:50;;;;;;;15.93;9.33;;;;;;;;;;5100131;28;20536;-81
2021/11/06 05:16:17;;;;;;;14.43;7.70;;;;;;;;;;5101488;28;20453;-82
2021/11/06 05:18:45;;;;;;;13.90;6.80;;;;;;;;;;5103190;28;20483;-82
2021/11/06 05:21:12;;;;;;;13.93;7.40;;;;;;;;;;5101516;28;20453;-82
2021/11/06 05:23:39;;;;;;;16.03;8.50;;;;;;;;;;5104241;28;20477;-82
2021/11/06 05:26:07;;;;;;;13.93;7.53;;;;;;;;;;5104770;28;20477;-83
2021/11/06 05:28:34;;;;;;;14.57;7.50;;;;;;;;;;5102733;28;20450;-83
2021/11/06 05:31:03;;;;;;;12.93;6.47;;;;;;;;;;5100534;28;20481;-83
2021/11/06 05:33:30;;;;;;;15.87;7.40;;;;;;;;;;5101254;28;20461;-82
2021/11/06 05:35:58;;;;;;;16.00;7.07;;;;;;;;;;5101872;28;20449;-82
2021/11/06 05:38:25;;;;;;;16.23;7.50;;;;;;;;;;5100838;28;20502;-82
2021/11/06 05:40:52;;;;;;;15.70;6.67;;;;;;;;;;5098323;28;20451;-82
2021/11/06 05:43:19;;;;;;;13.30;5.93;;;;;;;;;;5099177;28;21262;-82
2021/11/06 05:45:46;;;;;;;11.37;6.20;;;;;;;;;;5096120;28;20456;-81
2021/11/06 05:48:15;;;;;;;17.90;6.73;;;;;;;;;;5100677;28;20465;-81
2021/11/06 05:50:42;;;;;;;12.00;6.67;;;;;;;;;;5100590;28;20861;-81
2021/11/06 05:53:09;;;;;;;13.53;6.70;;;;;;;;;;5102170;28;20470;-81
2021/11/06 05:55:36;;;;;;;15.90;6.90;;;;;;;;;;5098098;28;20459;-81
2021/11/06 05:58:03;;;;;;;13.17;6.83;;;;;;;;;;5101356;28;20464;-80
2021/11/06 06:00:30;;;;;;;14.37;6.83;;;;;;;;;;5110244;22;20515;-81
2021/11/06 06:02:57;;;;;;;16.17;7.67;;;;;;;;;;5079892;28;20557;-80
2021/11/06 06:05:26;;;;;;;11.53;6.37;;;;;;;;;;5078682;28;20441;-81
2021/11/06 06:07:53;;;;;;;12.33;6.90;;;;;;;;;;5080714;28;20441;-81
2021/11/06 06:10:20;;;;;;;13.00;7.40;;;;;;;;;;5078996;28;20500;-80
2021/11/06 06:12:51;;;;;;;16.13;7.37;;;;;;;;;;5079621;28;20454;-81
2021/11/06 06:15:18;;;;;;;13.70;6.80;;;;;;;;;;5074839;28;20907;-81
2021/11/06 06:17:46;;;;;;;16.73;8.40;;;;;;;;;;5077895;28;20450;-81
2021/11/06 06:20:13;;;;;;;17.90;8.57;;;;;;;;;;5076622;28;20539;-81
2021/11/06 06:22:41;;;;;;;14.50;7.87;;;;;;;;;;5077770;28;20523;-81
2021/11/06 06:25:09;;;;;;;15.40;8.33;;;;;;;;;;5079544;28;20441;-80
2021/11/06 06:27:37;;;;;;;15.70;7.83;;;;;;;;;;5078472;28;20540;-80
2021/11/06 06:30:04;;;;;;;14.10;8.03;;;;;;;;;;5076602;28;20474;-81
2021/11/06 06:32:31;;;;;;;13.40;8.60;;;;;;;;;;5072304;28;20497;-80
2021/11/06 06:34:58;;;;;;;16.00;7.27;;;;;;;;;;5059235;28;20455;-81
2021/11/06 06:37:28;;;;;;;15.17;8.20;;;;;;;;;;5068945;28;20838;-82
2021/11/06 06:39:59;;;;;;;15.80;6.97;;;;;;;;;;5068030;28;20553;-83
2021/11/06 06:42:27;;;;;;;14.43;7.50;;;;;;;;;;5075059;28;20475;-83
2021/11/06 06:44:54;;;;;;;16.67;7.97;;;;;;;;;;5056310;28;20541;-81
2021/11/06 06:47:22;;;;;;;16.43;7.53;;;;;;;;;;5055380;28;21099;-81
2021/11/06 06:49:49;;;;;;;15.67;8.30;;;;;;;;;;5054632;28;20475;-81
2021/11/06 06:52:17;;;;;;;13.27;7.30;;;;;;;;;;5062144;28;21052;-81
2021/11/06 06:54:44;;;;;;;14.93;7.97;;;;;;;;;;5055863;28;20504;-80
2021/11/06 06:57:12;;;;;;;17.80;9.67;;;;;;;;;;5057374;28;20443;-81
2021/11/06 06:59:50;;;;;;;14.60;7.33;;;;;;;;;;5073870;28;20489;-80
2021/11/06 07:02:18;;;;;;;19.10;7.60;;;;;;;;;;5074081;28;20450;-80
2021/11/06 07:04:45;;;;;;;12.20;6.83;;;;;;;;;;5074077;28;20455;-81
2021/11/06 07:07:12;;;;;;;18.00;6.40;;;;;;;;;;5074405;28;20450;-81
2021/11/06 07:09:39;;;;;;;15.10;7.57;;;;;;;;;;5067263;28;20497;-81
2021/11/06 07:12:07;;;;;;;16.73;7.60;;;;;;;;;;5056465;28;20483;-80
2021/11/06 07:14:35;;;;;;;16.07;6.90;;;;;;;;;;5056922;28;20452;-81
2021/11/06 07:17:03;;;;;;;9.40;5.70;;;;;;;;;;5057552;28;20823;-80
2021/11/06 07:19:30;;;;;;;13.37;7.50;;;;;;;;;;5057324;28;20460;-81
2021/11/06 07:21:57;;;;;;;10.70;5.90;;;;;;;;;;5056676;28;20443;-80
2021/11/06 07:24:24;;;;;;;13.60;5.80;;;;;;;;;;5057530;28;20950;-81
2021/11/06 07:26:51;;;;;;;14.00;6.70;;;;;;;;;;5057667;28;20455;-80
2021/11/06 07:29:18;;;;;;;14.00;6.50;;;;;;;;;;5057256;28;20444;-79
2021/11/06 07:31:50;;;;;;;10.57;5.87;;;;;;;;;;5056686;28;20493;-80
2021/11/06 07:34:17;;;;;;;12.93;5.80;;;;;;;;;;5056876;28;20527;-81
2021/11/06 07:36:45;;;;;;;14.90;6.93;;;;;;;;;;5057923;28;20547;-81
2021/11/06 07:39:12;;;;;;;12.40;6.17;;;;;;;;;;5057075;28;20964;-82
2021/11/06 07:41:39;;;;;;;12.37;6.13;;;;;;;;;;5068103;28;20465;-80
2021/11/06 07:44:06;;;;;;;12.17;6.73;;;;;;;;;;5084450;28;20456;-80
2021/11/06 07:46:34;;;;;;;13.33;6.03;;;;;;;;;;5086251;28;20444;-80
2021/11/06 07:49:02;;;;;;;14.40;6.30;;;;;;;;;;5091547;28;20472;-81
2021/11/06 07:51:29;;;;;;;12.50;6.47;;;;;;;;;;5076923;28;20482;-80
2021/11/06 07:53:56;;;;;;;13.57;6.00;;;;;;;;;;5077052;28;20451;-82
2021/11/06 07:56:24;;;;;;;13.30;6.80;;;;;;;;;;5077325;28;20967;-80
2021/11/06 07:58:51;;;;;;;11.50;6.20;;;;;;;;;;5074335;28;20453;-81
2021/11/06 08:01:20;;;;;;;12.47;6.00;;;;;;;;;;5079204;28;20483;-81
2021/11/06 08:03:47;;;;;;;11.90;6.33;;;;;;;;;;5066502;28;20523;-81
2021/11/06 08:06:17;;;;;;;11.73;5.93;;;;;;;;;;5069745;28;20816;-81
2021/11/06 08:08:45;;;;;;;11.67;6.00;;;;;;;;;;5075441;28;20459;-80
2021/11/06 08:11:12;;;;;;;11.23;5.10;;;;;;;;;;5075987;28;20496;-81
2021/11/06 08:13:39;;;;;;;13.70;6.00;;;;;;;;;;5070535;28;20449;-80
2021/11/06 08:16:06;;;;;;;16.90;6.83;;;;;;;;;;5070492;28;20447;-81
2021/11/06 08:18:33;;;;;;;11.73;5.90;;;;;;;;;;5069114;28;20992;-81
2021/11/06 08:21:00;;;;;;;12.57;6.37;;;;;;;;;;5067537;28;20459;-81
2021/11/06 08:23:29;;;;;;;16.20;6.27;;;;;;;;;;5074905;28;20432;-81
2021/11/06 08:25:56;;;;;;;13.43;5.87;;;;;;;;;;5092921;28;20943;-81
2021/11/06 08:28:23;;;;;;;15.47;6.37;;;;;;;;;;5097016;28;20454;-80
2021/11/06 08:30:50;;;;;;;9.00;4.53;;;;;;;;;;5062391;28;20469;-82
2021/11/06 08:33:17;;;;;;;10.80;5.10;;;;;;;;;;5073918;28;20443;-81
2021/11/06 08:35:44;;;;;;;9.97;5.07;;;;;;;;;;5076496;28;20495;-81
2021/11/06 08:38:12;;;;;;;12.93;6.20;;;;;;;;;;5076480;28;20453;-81
2021/11/06 08:40:40;;;;;;;9.13;5.07;;;;;;;;;;5063655;28;20472;-82
2021/11/06 08:43:07;;;;;;;10.80;6.00;;;;;;;;;;5068401;28;20446;-81
2021/11/06 08:45:35;;;;;;;13.73;5.00;;;;;;;;;;5058451;28;20445;-81
2021/11/06 08:48:02;;;;;;;13.23;5.70;;;;;;;;;;5072482;28;20455;-80
2021/11/06 08:50:29;;;;;;;13.43;5.00;;;;;;;;;;5074867;28;20472;-81
2021/11/06 08:52:57;;;;;;;12.47;5.63;;;;;;;;;;5074898;28;20488;-80
2021/11/06 08:55:25;;;;;;;13.23;6.07;;;;;;;;;;5074587;28;20970;-80
2021/11/06 08:57:54;;;;;;;12.50;6.00;;;;;;;;;;5064248;28;20601;-80
2021/11/06 09:00:26;;;;;;;10.07;5.10;;;;;;;;;;5055333;28;20491;-80
2021/11/06 09:02:54;;;;;;;11.57;5.43;;;;;;;;;;5055338;28;20474;-84
2021/11/06 09:05:21;;;;;;;11.23;5.30;;;;;;;;;;5057449;28;20452;-80
2021/11/06 09:07:49;;;;;;;10.40;5.03;;;;;;;;;;5071433;28;20747;-82
2021/11/06 09:10:17;;;;;;;14.73;6.90;;;;;;;;;;5056395;28;20466;-81
2021/11/06 09:12:44;;;;;;;11.47;5.43;;;;;;;;;;5055280;28;20495;-80
2021/11/06 09:15:13;;;;;;;10.60;5.57;;;;;;;;;;5055257;28;20463;-81
2021/11/06 09:17:40;;;;;;;9.63;4.93;;;;;;;;;;5055528;28;20459;-81
2021/11/06 09:20:09;;;;;;;10.00;5.40;;;;;;;;;;5059570;28;20470;-81
2021/11/06 09:22:37;;;;;;;11.10;5.97;;;;;;;;;;5055579;28;20530;-82
2021/11/06 09:25:05;;;;;;;9.33;5.00;;;;;;;;;;5054028;28;20452;-81
2021/11/06 09:27:32;;;;;;;9.13;5.10;;;;;;;;;;5054955;28;20568;-80
2021/11/06 09:29:59;;;;;;;10.50;5.43;;;;;;;;;;5057758;28;20464;-80
2021/11/06 09:32:27;;;;;;;10.40;4.87;;;;;;;;;;5075311;28;21208;-81
2021/11/06 09:34:55;;;;;;;8.93;4.57;;;;;;;;;;5075153;28;20449;-81
2021/11/06 09:37:22;;;;;;;10.00;5.67;;;;;;;;;;5074954;28;20452;-82
2021/11/06 09:39:49;;;;;;;9.87;6.27;;;;;;;;;;5060358;28;21005;-81
2021/11/06 09:42:16;;;;;;;10.60;5.50;;;;;;;;;;5062961;28;20531;-80
2021/11/06 09:44:44;;;;;;;11.27;4.67;;;;;;;;;;5063161;28;20432;-81
2021/11/06 09:47:12;;;;;;;11.37;6.07;;;;;;;;;;5055558;28;20458;-80
2021/11/06 09:49:41;;;;;;;11.50;5.80;;;;;;;;;;5055855;28;20473;-81
2021/11/06 09:52:09;;;;;;;9.27;5.07;;;;;;;;;;5070481;28;20499;-80
2021/11/06 09:54:36;;;;;;;11.27;5.70;;;;;;;;;;5073238;28;20452;-82
2021/11/06 09:57:03;;;;;;;8.37;4.23;;;;;;;;;;5072158;28;20453;-81
2021/11/06 09:59:32;;;;;;;8.73;5.00;;;;;;;;;;5064963;28;20530;-82
2021/11/06 10:01:59;;;;;;;12.50;5.10;;;;;;;;;;5052794;28;20450;-81
2021/11/06 10:04:26;;;;;;;9.40;4.80;;;;;;;;;;5061926;28;20456;-81
2021/11/06 10:06:58;;;;;;;9.63;5.80;;;;;;;;;;5058937;28;20458;-81
2021/11/06 10:09:25;;;;;;;12.07;5.20;;;;;;;;;;5052941;28;20535;-81
2021/11/06 10:11:53;;;;;;;9.90;4.63;;;;;;;;;;5068918;28;20482;-82
2021/11/06 10:14:21;;;;;;;9.50;4.87;;;;;;;;;;5064508;28;20461;-81
2021/11/06 10:16:51;;;;;;;10.03;5.60;;;;;;;;;;5054719;28;20454;-81
2021/11/06 10:19:19;;;;;;;13.10;4.83;;;;;;;;;;5074721;28;20451;-82
2021/11/06 10:21:47;;;;;;;9.63;5.03;;;;;;;;;;5074385;28;20448;-82
2021/11/06 10:24:16;;;;;;;10.80;4.50;;;;;;;;;;5065129;28;20858;-81
2021/11/06 10:26:43;;;;;;;8.50;5.50;;;;;;;;;;5054649;28;20521;-81
2021/11/06 10:29:11;;;;;;;10.50;4.90;;;;;;;;;;5054950;28;21039;-82
2021/11/06 10:32:03;;;;;;;9.47;4.90;;;;;;;;;;5053269;28;20493;-81
2021/11/06 10:34:35;;;;;;;8.33;4.60;;;;;;;;;;5060832;28;20532;-81
2021/11/06 10:37:04;;;;;;;8.47;4.67;;;;;;;;;;5060867;28;20478;-81
2021/11/06 10:39:33;;;;;;;9.17;4.60;;;;;;;;;;5068345;28;20497;-81
2021/11/06 10:42:10;;;;;;;9.00;4.40;;;;;;;;;;5069105;28;20452;-81
2021/11/06 10:44:37;;;;;;;8.63;4.60;;;;;;;;;;5062365;28;20457;-82
2021/11/06 10:47:04;;;;;;;7.70;3.93;;;;;;;;;;5057400;28;20526;-81
2021/11/06 10:49:32;;;;;;;8.77;4.50;;;;;;;;;;5058515;28;20463;-82
2021/11/06 10:52:01;;;;;;;9.33;4.47;;;;;;;;;;5056625;28;20476;-81
2021/11/06 10:54:28;;;;;;;10.50;5.70;;;;;;;;;;5068652;28;20461;-80
2021/11/06 10:56:57;;;;;;;8.77;4.33;;;;;;;;;;5077549;28;20439;-81
2021/11/06 10:59:25;;;;;;;10.23;4.20;;;;;;;;;;5065245;28;20852;-81
2021/11/06 11:01:54;;;;;;;8.43;4.23;;;;;;;;;;5069135;28;20495;-81
2021/11/06 11:04:21;;;;;;;8.97;4.10;;;;;;;;;;5066243;28;20479;-81
2021/11/06 11:06:49;;;;;;;8.77;3.70;;;;;;;;;;5077015;28;20483;-82
2021/11/06 11:09:18;;;;;;;9.40;4.20;;;;;;;;;;5076624;28;20538;-81
2021/11/06 11:11:45;;;;;;;8.50;3.80;;;;;;;;;;5075803;28;20485;-81
2021/11/06 11:14:15;;;;;;;9.80;4.10;;;;;;;;;;5070500;28;20456;-81
2021/11/06 11:16:49;;;;;;;7.80;3.57;;;;;;;;;;5057767;28;20490;-81
2021/11/06 11:19:17;;;;;;;7.80;3.70;;;;;;;;;;5058174;28;20812;-80
2021/11/06 11:21:45;;;;;;;8.70;4.03;;;;;;;;;;5056308;28;20453;-82
2021/11/06 11:24:14;;;;;;;16.53;4.60;;;;;;;;;;5064477;28;20515;-81
2021/11/06 11:26:41;;;;;;;9.17;4.63;;;;;;;;;;5076864;28;20461;-82
2021/11/06 11:29:10;;;;;;;8.73;4.40;;;;;;;;;;5076531;28;20454;-82
2021/11/06 11:31:38;;;;;;;10.10;4.30;;;;;;;;;;5075894;28;20987;-80
2021/11/06 11:34:08;;;;;;;11.03;4.37;;;;;;;;;;5069954;28;20955;-81
2021/11/06 11:36:36;;;;;;;8.63;3.80;;;;;;;;;;5055946;28;20532;-81
2021/11/06 11:39:08;;;;;;;12.37;5.07;;;;;;;;;;5075409;28;20459;-81
2021/11/06 11:41:56;;;;;;;10.50;3.87;;;;;;;;;;5057349;28;20561;-80
2021/11/06 11:44:53;;;;;;;7.83;3.80;;;;;;;;;;5065617;28;20984;-81
2021/11/06 11:47:25;;;;;;;7.73;3.40;;;;;;;;;;5073215;28;20882;-82
2021/11/06 11:49:53;;;;;;;9.63;4.10;;;;;;;;;;5073786;28;20986;-81
2021/11/06 11:52:27;;;;;;;9.37;3.40;;;;;;;;;;5074812;28;20489;-81
2021/11/06 11:54:58;;;;;;;9.87;3.67;;;;;;;;;;5071821;28;20469;-81
2021/11/06 11:57:26;;;;;;;7.37;3.20;;;;;;;;;;5074820;28;20459;-82
2021/11/06 11:59:53;;;;;;;8.40;3.37;;;;;;;;;;5074745;28;20481;-80
2021/11/06 12:02:23;;;;;;;10.70;4.03;;;;;;;;;;5064996;28;20457;-80
2021/11/06 12:05:05;;;;;;;7.57;3.50;;;;;;;;;;5068362;28;20536;-81
2021/11/06 12:07:32;;;;;;;8.87;3.10;;;;;;;;;;5072755;28;20512;-81
2021/11/06 12:10:31;;;;;;;7.60;3.43;;;;;;;;;;5058148;28;20498;-79
2021/11/06 12:12:58;;;;;;;10.40;3.33;;;;;;;;;;5074926;28;20573;-80
2021/11/06 12:15:52;;;;;;;8.53;3.50;;;;;;;;;;5103311;22;21028;-80
2021/11/06 12:18:34;;;;;;;6.93;2.67;;;;;;;;;;5115491;28;20453;-83
2021/11/06 12:21:16;;;;;;;8.10;3.50;;;;;;;;;;5108185;28;20952;-82
2021/11/06 12:23:45;;;;;;;7.87;3.60;;;;;;;;;;5108344;28;20942;-82
2021/11/06 12:26:13;;;;;;;7.57;2.63;;;;;;;;;;5108576;27;20473;-82
2021/11/06 12:28:40;;;;;;;7.60;2.90;;;;;;;;;;5109972;28;20543;-80
2021/11/06 12:31:22;;;;;;;9.77;3.40;;;;;;;;;;5107766;27;20979;-81
2021/11/06 12:33:49;;;;;;;7.30;2.77;;;;;;;;;;5111750;27;20580;-80
2021/11/06 12:36:17;;;;;;;9.17;3.40;;;;;;;;;;5117001;27;20498;-82
2021/11/06 12:38:45;;;;;;;8.40;2.60;;;;;;;;;;5128215;27;20496;-82
2021/11/06 12:41:13;;;;;;;7.33;2.80;;;;;;;;;;5118940;27;20832;-83
2021/11/06 12:43:49;;;;;;;7.77;3.20;;;;;;;;;;5124305;27;20456;-80
2021/11/06 12:46:20;;;;;;;8.37;2.90;;;;;;;;;;5118101;27;20478;-80
2021/11/06 12:48:47;;;;;;;7.47;2.50;;;;;;;;;;5110504;27;20491;-80
2021/11/06 12:51:16;;;;;;;7.00;2.30;;;;;;;;;;5114409;28;20476;-82
2021/11/06 12:53:44;;;;;;;8.10;2.83;;;;;;;;;;5118126;27;20498;-82
2021/11/06 12:56:14;;;;;;;7.67;2.80;;;;;;;;;;5115469;27;20493;-82
2021/11/06 12:58:42;;;;;;;6.93;2.17;;;;;;;;;;5113914;27;20449;-82
2021/11/06 13:01:19;;;;;;;8.53;2.30;;;;;;;;;;5111346;28;20456;-83
2021/11/06 13:03:46;;;;;;;6.70;2.80;;;;;;;;;;5115343;27;20445;-83
2021/11/06 13:06:26;;;;;;;6.47;2.00;;;;;;;;;;5113922;28;20849;-82
2021/11/06 13:09:08;;;;;;;8.30;2.30;;;;;;;;;;5121489;28;20533;-81
2021/11/06 13:11:57;;;;;;;6.83;2.37;;;;;;;;;;5131060;28;20435;-82
2021/11/06 13:14:28;;;;;;;7.33;2.20;;;;;;;;;;5131776;27;20480;-82
2021/11/06 13:16:59;;;;;;;9.33;3.23;;;;;;;;;;5134474;28;20451;-79
2021/11/06 13:19:42;;;;;;;6.20;1.80;;;;;;;;;;5133049;28;20438;-80
2021/11/06 13:22:10;;;;;;;6.87;1.90;;;;;;;;;;5124059;28;20504;-79
2021/11/06 13:24:53;;;;;;;6.60;2.20;;;;;;;;;;5123461;27;20521;-81
2021/11/06 13:27:45;;;;;;;6.20;1.87;;;;;;;;;;5116288;28;20458;-80
2021/11/06 13:30:24;;;;;;;6.57;1.80;;;;;;;;;;5101344;28;20486;-81
2021/11/06 13:32:58;;;;;;;7.30;1.90;;;;;;;;;;5113826;28;20480;-81
2021/11/06 13:35:26;;;;;;;10.47;2.60;;;;;;;;;;5115880;28;20473;-82
2021/11/06 13:38:14;;;;;;;8.90;2.50;;;;;;;;;;5115254;28;20443;-81
2021/11/06 13:40:45;;;;;;;7.10;1.93;;;;;;;;;;5114597;28;20944;-81
2021/11/06 13:43:15;;;;;;;8.80;2.77;;;;;;;;;;5112358;28;20454;-82
2021/11/06 13:45:57;;;;;;;6.17;1.80;;;;;;;;;;5112119;28;20547;-81
2021/11/06 13:48:24;;;;;;;7.60;1.70;;;;;;;;;;5112342;28;20921;-81
2021/11/06 13:50:51;;;;;;;10.10;2.50;;;;;;;;;;5113411;28;20444;-82
2021/11/06 13:53:25;;;;;;;5.80;1.97;;;;;;;;;;5115445;28;20477;-82
2021/11/06 13:55:57;;;;;;;5.63;1.43;;;;;;;;;;5113531;28;20854;-81
2021/11/06 13:58:27;;;;;;;8.57;1.50;;;;;;;;;;5131030;27;20447;-81
2021/11/06 14:00:54;;;;;;;5.90;1.40;;;;;;;;;;5111486;28;20455;-82
2021/11/06 14:03:22;;;;;;;6.93;1.43;;;;;;;;;;5114960;28;20523;-81
2021/11/06 14:05:49;;;;;;;5.43;1.30;;;;;;;;;;5113548;28;20531;-82
2021/11/06 14:08:17;;;;;;;7.27;1.53;;;;;;;;;;5115844;28;20811;-81
2021/11/06 14:10:44;;;;;;;5.97;1.53;;;;;;;;;;5115048;28;20449;-82
2021/11/06 14:13:15;;;;;;;6.33;1.50;;;;;;;;;;5116759;28;20473;-82
2021/11/06 14:15:46;;;;;;;5.23;1.30;;;;;;;;;;5113214;28;20505;-82
2021/11/06 14:18:17;;;;;;;7.87;1.30;;;;;;;;;;5114410;28;20496;-82
2021/11/06 14:20:46;;;;;;;8.53;1.60;;;;;;;;;;5118865;28;20468;-81
2021/11/06 14:23:15;;;;;;;7.20;1.27;;;;;;;;;;5120991;28;20453;-81
2021/11/06 14:25:43;;;;;;;5.80;1.57;;;;;;;;;;5139782;27;20469;-82
2021/11/06 14:28:15;;;;;;;8.30;1.90;;;;;;;;;;5119396;27;20543;-81
2021/11/06 14:30:57;;;;;;;5.97;1.20;;;;;;;;;;5120729;28;20440;-81
2021/11/06 14:33:29;;;;;;;6.20;1.50;;;;;;;;;;5127588;28;20552;-82
2021/11/06 14:36:08;;;;;;;6.90;1.70;;;;;;;;;;5131861;27;20462;-81
2021/11/06 14:38:46;;;;;;;5.43;1.43;;;;;;;;;;5133592;27;20903;-82
2021/11/06 14:41:16;;;;;;;7.73;1.77;;;;;;;;;;5115650;28;20453;-81